sensor_id;sensor_type;location;lat;lon;timestamp;P1;durP1;ratioP1;P2;durP2;ratioP2
58250;SDS011;51449;51.676;5.812;2024-02-23T00:02:19;2.63;;;1.10;;
58250;SDS011;51449;51.676;5.812;2024-02-23T00:04:41;0.90;;;0.90;;
58250;SDS011;51449;51.676;5.812;2024-02-23T00:07:03;0.80;;;0.80;;
58250;SDS011;51449;51.676;5.812;2024-02-23T00:09:25;0.90;;;0.90;;
58250;SDS011;51449;51.676;5.812;2024-02-23T00:11:48;0.60;;;0.60;;
58250;SDS011;51449;51.676;5.812;2024-02-23T00:14:11;0.63;;;0.63;;
58250;SDS011;51449;51.676;5.812;2024-02-23T00:16:40;0.80;;;0.80;;
58250;SDS011;51449;51.676;5.812;2024-02-23T00:19:02;0.90;;;0.90;;
58250;SDS011;51449;51.676;5.812;2024-02-23T00:21:24;1.57;;;1.47;;
58250;SDS011;51449;51.676;5.812;2024-02-23T00:23:46;1.10;;;1.10;;
58250;SDS011;51449;51.676;5.812;2024-02-23T00:26:08;1.17;;;1.07;;
58250;SDS011;51449;51.676;5.812;2024-02-23T00:28:30;1.20;;;1.10;;
58250;SDS011;51449;51.676;5.812;2024-02-23T00:30:51;1.03;;;1.00;;
58250;SDS011;51449;51.676;5.812;2024-02-23T00:33:14;3.30;;;1.93;;
58250;SDS011;51449;51.676;5.812;2024-02-23T00:35:36;1.33;;;1.23;;
58250;SDS011;51449;51.676;5.812;2024-02-23T00:37:58;5.10;;;1.33;;
58250;SDS011;51449;51.676;5.812;2024-02-23T00:40:19;0.93;;;0.93;;
58250;SDS011;51449;51.676;5.812;2024-02-23T00:42:41;1.30;;;1.20;;
58250;SDS011;51449;51.676;5.812;2024-02-23T00:45:03;0.97;;;0.97;;
58250;SDS011;51449;51.676;5.812;2024-02-23T00:47:26;0.80;;;0.80;;
58250;SDS011;51449;51.676;5.812;2024-02-23T00:49:49;1.80;;;1.70;;
58250;SDS011;51449;51.676;5.812;2024-02-23T00:52:10;1.40;;;1.40;;
58250;SDS011;51449;51.676;5.812;2024-02-23T00:54:34;2.50;;;1.57;;
58250;SDS011;51449;51.676;5.812;2024-02-23T00:56:56;1.33;;;1.30;;
58250;SDS011;51449;51.676;5.812;2024-02-23T00:59:18;2.03;;;1.53;;
58250;SDS011;51449;51.676;5.812;2024-02-23T01:01:40;1.47;;;1.30;;
58250;SDS011;51449;51.676;5.812;2024-02-23T01:04:02;0.90;;;0.90;;
58250;SDS011;51449;51.676;5.812;2024-02-23T01:06:24;1.30;;;1.20;;
58250;SDS011;51449;51.676;5.812;2024-02-23T01:08:46;1.10;;;1.10;;
58250;SDS011;51449;51.676;5.812;2024-02-23T01:11:08;0.80;;;0.80;;
58250;SDS011;51449;51.676;5.812;2024-02-23T01:13:30;0.60;;;0.60;;
58250;SDS011;51449;51.676;5.812;2024-02-23T01:15:52;1.87;;;1.10;;
58250;SDS011;51449;51.676;5.812;2024-02-23T01:18:15;1.27;;;1.17;;
58250;SDS011;51449;51.676;5.812;2024-02-23T01:20:37;0.67;;;0.67;;
58250;SDS011;51449;51.676;5.812;2024-02-23T01:22:59;0.70;;;0.50;;
58250;SDS011;51449;51.676;5.812;2024-02-23T01:25:22;8.50;;;0.70;;
58250;SDS011;51449;51.676;5.812;2024-02-23T01:27:43;9.47;;;1.30;;
58250;SDS011;51449;51.676;5.812;2024-02-23T01:30:06;1.63;;;1.53;;
58250;SDS011;51449;51.676;5.812;2024-02-23T01:32:28;0.47;;;0.47;;
58250;SDS011;51449;51.676;5.812;2024-02-23T01:34:50;1.03;;;0.80;;
58250;SDS011;51449;51.676;5.812;2024-02-23T01:37:12;0.43;;;0.43;;
58250;SDS011;51449;51.676;5.812;2024-02-23T01:39:34;1.40;;;0.60;;
58250;SDS011;51449;51.676;5.812;2024-02-23T01:41:56;7.03;;;0.57;;
58250;SDS011;51449;51.676;5.812;2024-02-23T01:44:18;0.30;;;0.30;;
58250;SDS011;51449;51.676;5.812;2024-02-23T01:46:42;0.47;;;0.45;;
58250;SDS011;51449;51.676;5.812;2024-02-23T01:49:08;0.40;;;0.40;;
58250;SDS011;51449;51.676;5.812;2024-02-23T01:51:31;2.07;;;0.70;;
58250;SDS011;51449;51.676;5.812;2024-02-23T01:53:53;2.90;;;0.50;;
58250;SDS011;51449;51.676;5.812;2024-02-23T01:56:15;8.90;;;0.47;;
58250;SDS011;51449;51.676;5.812;2024-02-23T01:58:40;3.40;;;0.47;;
58250;SDS011;51449;51.676;5.812;2024-02-23T02:01:02;0.60;;;0.60;;
58250;SDS011;51449;51.676;5.812;2024-02-23T02:03:24;2.37;;;0.90;;
58250;SDS011;51449;51.676;5.812;2024-02-23T02:05:46;0.40;;;0.40;;
58250;SDS011;51449;51.676;5.812;2024-02-23T02:08:08;0.43;;;0.43;;
58250;SDS011;51449;51.676;5.812;2024-02-23T02:10:32;0.98;;;0.25;;
58250;SDS011;51449;51.676;5.812;2024-02-23T02:12:54;6.17;;;0.87;;
58250;SDS011;51449;51.676;5.812;2024-02-23T02:15:16;0.73;;;0.73;;
58250;SDS011;51449;51.676;5.812;2024-02-23T02:17:38;2.40;;;0.40;;
58250;SDS011;51449;51.676;5.812;2024-02-23T02:19:59;0.50;;;0.50;;
58250;SDS011;51449;51.676;5.812;2024-02-23T02:22:27;0.20;;;0.20;;
58250;SDS011;51449;51.676;5.812;2024-02-23T02:24:49;0.10;;;0.10;;
58250;SDS011;51449;51.676;5.812;2024-02-23T02:27:11;0.70;;;0.40;;
58250;SDS011;51449;51.676;5.812;2024-02-23T02:29:33;2.47;;;0.40;;
58250;SDS011;51449;51.676;5.812;2024-02-23T02:31:56;1.02;;;0.40;;
58250;SDS011;51449;51.676;5.812;2024-02-23T02:34:18;1.70;;;0.40;;
58250;SDS011;51449;51.676;5.812;2024-02-23T02:36:40;0.50;;;0.23;;
58250;SDS011;51449;51.676;5.812;2024-02-23T02:39:02;2.53;;;0.80;;
58250;SDS011;51449;51.676;5.812;2024-02-23T02:41:24;0.70;;;0.50;;
58250;SDS011;51449;51.676;5.812;2024-02-23T02:43:51;1.80;;;0.87;;
58250;SDS011;51449;51.676;5.812;2024-02-23T02:46:13;0.30;;;0.30;;
58250;SDS011;51449;51.676;5.812;2024-02-23T02:48:35;1.67;;;0.43;;
58250;SDS011;51449;51.676;5.812;2024-02-23T02:50:57;0.30;;;0.30;;
58250;SDS011;51449;51.676;5.812;2024-02-23T02:53:18;0.20;;;0.20;;
58250;SDS011;51449;51.676;5.812;2024-02-23T02:55:44;1.40;;;1.33;;
58250;SDS011;51449;51.676;5.812;2024-02-23T02:58:07;1.47;;;0.80;;
58250;SDS011;51449;51.676;5.812;2024-02-23T03:00:29;0.20;;;0.20;;
58250;SDS011;51449;51.676;5.812;2024-02-23T03:02:52;0.30;;;0.30;;
58250;SDS011;51449;51.676;5.812;2024-02-23T03:05:14;0.23;;;0.23;;
58250;SDS011;51449;51.676;5.812;2024-02-23T03:07:36;1.33;;;0.37;;
58250;SDS011;51449;51.676;5.812;2024-02-23T03:09:58;0.70;;;0.57;;
58250;SDS011;51449;51.676;5.812;2024-02-23T03:12:20;3.97;;;0.67;;
58250;SDS011;51449;51.676;5.812;2024-02-23T03:14:42;1.50;;;0.53;;
58250;SDS011;51449;51.676;5.812;2024-02-23T03:17:07;1.23;;;0.40;;
58250;SDS011;51449;51.676;5.812;2024-02-23T03:19:31;0.63;;;0.63;;
58250;SDS011;51449;51.676;5.812;2024-02-23T03:21:54;0.60;;;0.60;;
58250;SDS011;51449;51.676;5.812;2024-02-23T03:24:15;1.00;;;0.30;;
58250;SDS011;51449;51.676;5.812;2024-02-23T03:26:37;5.33;;;0.77;;
58250;SDS011;51449;51.676;5.812;2024-02-23T03:28:59;1.67;;;0.70;;
58250;SDS011;51449;51.676;5.812;2024-02-23T03:31:21;0.83;;;0.53;;
58250;SDS011;51449;51.676;5.812;2024-02-23T03:33:43;0.93;;;0.30;;
58250;SDS011;51449;51.676;5.812;2024-02-23T03:36:05;0.60;;;0.60;;
58250;SDS011;51449;51.676;5.812;2024-02-23T03:38:27;1.50;;;0.40;;
58250;SDS011;51449;51.676;5.812;2024-02-23T03:40:53;4.17;;;0.87;;
58250;SDS011;51449;51.676;5.812;2024-02-23T03:43:15;0.63;;;0.63;;
58250;SDS011;51449;51.676;5.812;2024-02-23T03:45:37;2.47;;;0.43;;
58250;SDS011;51449;51.676;5.812;2024-02-23T03:47:59;0.20;;;0.20;;
58250;SDS011;51449;51.676;5.812;2024-02-23T03:50:21;0.20;;;0.20;;
58250;SDS011;51449;51.676;5.812;2024-02-23T03:52:43;1.27;;;1.13;;
58250;SDS011;51449;51.676;5.812;2024-02-23T03:55:05;1.43;;;0.57;;
58250;SDS011;51449;51.676;5.812;2024-02-23T03:57:27;0.40;;;0.40;;
58250;SDS011;51449;51.676;5.812;2024-02-23T03:59:53;0.63;;;0.40;;
58250;SDS011;51449;51.676;5.812;2024-02-23T04:02:16;0.47;;;0.40;;
58250;SDS011;51449;51.676;5.812;2024-02-23T04:04:38;0.53;;;0.53;;
58250;SDS011;51449;51.676;5.812;2024-02-23T04:06:59;0.20;;;0.20;;
58250;SDS011;51449;51.676;5.812;2024-02-23T04:09:21;0.63;;;0.63;;
58250;SDS011;51449;51.676;5.812;2024-02-23T04:11:46;1.07;;;0.40;;
58250;SDS011;51449;51.676;5.812;2024-02-23T04:14:10;0.40;;;0.30;;
58250;SDS011;51449;51.676;5.812;2024-02-23T04:16:32;0.37;;;0.37;;
58250;SDS011;51449;51.676;5.812;2024-02-23T04:18:54;0.67;;;0.23;;
58250;SDS011;51449;51.676;5.812;2024-02-23T04:21:17;0.55;;;0.55;;
58250;SDS011;51449;51.676;5.812;2024-02-23T04:23:39;4.83;;;0.63;;
58250;SDS011;51449;51.676;5.812;2024-02-23T04:26:01;0.93;;;0.20;;
58250;SDS011;51449;51.676;5.812;2024-02-23T04:28:22;0.30;;;0.30;;
58250;SDS011;51449;51.676;5.812;2024-02-23T04:30:44;0.67;;;0.67;;
58250;SDS011;51449;51.676;5.812;2024-02-23T04:33:06;4.77;;;0.93;;
58250;SDS011;51449;51.676;5.812;2024-02-23T04:35:28;1.97;;;0.70;;
58250;SDS011;51449;51.676;5.812;2024-02-23T04:37:50;0.20;;;0.20;;
58250;SDS011;51449;51.676;5.812;2024-02-23T04:40:12;1.60;;;0.93;;
58250;SDS011;51449;51.676;5.812;2024-02-23T04:42:34;5.20;;;0.77;;
58250;SDS011;51449;51.676;5.812;2024-02-23T04:44:55;7.50;;;1.07;;
58250;SDS011;51449;51.676;5.812;2024-02-23T04:47:17;0.30;;;0.30;;
58250;SDS011;51449;51.676;5.812;2024-02-23T04:49:39;0.97;;;0.53;;
58250;SDS011;51449;51.676;5.812;2024-02-23T04:52:01;0.90;;;0.33;;
58250;SDS011;51449;51.676;5.812;2024-02-23T04:54:23;0.30;;;0.30;;
58250;SDS011;51449;51.676;5.812;2024-02-23T04:56:44;0.73;;;0.50;;
58250;SDS011;51449;51.676;5.812;2024-02-23T04:59:06;0.67;;;0.50;;
58250;SDS011;51449;51.676;5.812;2024-02-23T05:01:28;1.70;;;0.67;;
58250;SDS011;51449;51.676;5.812;2024-02-23T05:03:50;0.90;;;0.63;;
58250;SDS011;51449;51.676;5.812;2024-02-23T05:06:12;0.60;;;0.40;;
58250;SDS011;51449;51.676;5.812;2024-02-23T05:08:34;0.20;;;0.20;;
58250;SDS011;51449;51.676;5.812;2024-02-23T05:10:59;0.50;;;0.47;;
58250;SDS011;51449;51.676;5.812;2024-02-23T05:13:21;0.60;;;0.60;;
58250;SDS011;51449;51.676;5.812;2024-02-23T05:15:44;0.43;;;0.43;;
58250;SDS011;51449;51.676;5.812;2024-02-23T05:18:06;0.70;;;0.60;;
58250;SDS011;51449;51.676;5.812;2024-02-23T05:20:28;9.63;;;1.27;;
58250;SDS011;51449;51.676;5.812;2024-02-23T05:22:50;0.53;;;0.50;;
58250;SDS011;51449;51.676;5.812;2024-02-23T05:25:11;0.30;;;0.30;;
58250;SDS011;51449;51.676;5.812;2024-02-23T05:27:33;13.43;;;0.83;;
58250;SDS011;51449;51.676;5.812;2024-02-23T05:29:55;0.97;;;0.87;;
58250;SDS011;51449;51.676;5.812;2024-02-23T05:32:17;1.87;;;0.40;;
58250;SDS011;51449;51.676;5.812;2024-02-23T05:34:39;1.57;;;0.63;;
58250;SDS011;51449;51.676;5.812;2024-02-23T05:37:00;2.20;;;1.10;;
58250;SDS011;51449;51.676;5.812;2024-02-23T05:39:23;7.30;;;1.07;;
58250;SDS011;51449;51.676;5.812;2024-02-23T05:41:44;0.90;;;0.50;;
58250;SDS011;51449;51.676;5.812;2024-02-23T05:44:06;1.20;;;0.27;;
58250;SDS011;51449;51.676;5.812;2024-02-23T05:46:29;2.80;;;0.60;;
58250;SDS011;51449;51.676;5.812;2024-02-23T05:48:51;0.67;;;0.67;;
58250;SDS011;51449;51.676;5.812;2024-02-23T05:51:12;1.80;;;0.50;;
58250;SDS011;51449;51.676;5.812;2024-02-23T05:53:34;0.50;;;0.40;;
58250;SDS011;51449;51.676;5.812;2024-02-23T05:55:56;0.50;;;0.50;;
58250;SDS011;51449;51.676;5.812;2024-02-23T05:58:18;1.03;;;0.53;;
58250;SDS011;51449;51.676;5.812;2024-02-23T06:00:40;0.47;;;0.30;;
58250;SDS011;51449;51.676;5.812;2024-02-23T06:03:01;5.77;;;0.50;;
58250;SDS011;51449;51.676;5.812;2024-02-23T06:05:23;0.27;;;0.27;;
58250;SDS011;51449;51.676;5.812;2024-02-23T06:07:48;0.77;;;0.57;;
58250;SDS011;51449;51.676;5.812;2024-02-23T06:10:10;5.80;;;1.30;;
58250;SDS011;51449;51.676;5.812;2024-02-23T06:12:32;0.73;;;0.47;;
58250;SDS011;51449;51.676;5.812;2024-02-23T06:14:54;0.30;;;0.30;;
58250;SDS011;51449;51.676;5.812;2024-02-23T06:17:18;0.50;;;0.50;;
58250;SDS011;51449;51.676;5.812;2024-02-23T06:19:40;0.47;;;0.47;;
58250;SDS011;51449;51.676;5.812;2024-02-23T06:22:03;1.10;;;1.10;;
58250;SDS011;51449;51.676;5.812;2024-02-23T06:24:25;0.60;;;0.60;;
58250;SDS011;51449;51.676;5.812;2024-02-23T06:26:47;5.93;;;1.20;;
58250;SDS011;51449;51.676;5.812;2024-02-23T06:29:10;0.95;;;0.95;;
58250;SDS011;51449;51.676;5.812;2024-02-23T06:31:32;5.87;;;1.47;;
58250;SDS011;51449;51.676;5.812;2024-02-23T06:33:56;1.20;;;1.20;;
58250;SDS011;51449;51.676;5.812;2024-02-23T06:36:18;4.23;;;1.50;;
58250;SDS011;51449;51.676;5.812;2024-02-23T06:38:40;3.03;;;1.00;;
58250;SDS011;51449;51.676;5.812;2024-02-23T06:41:01;1.20;;;1.20;;
58250;SDS011;51449;51.676;5.812;2024-02-23T06:43:23;2.60;;;1.80;;
58250;SDS011;51449;51.676;5.812;2024-02-23T06:45:45;1.53;;;1.53;;
58250;SDS011;51449;51.676;5.812;2024-02-23T06:48:07;5.13;;;1.60;;
58250;SDS011;51449;51.676;5.812;2024-02-23T06:50:29;2.50;;;1.50;;
58250;SDS011;51449;51.676;5.812;2024-02-23T06:52:52;4.50;;;2.13;;
58250;SDS011;51449;51.676;5.812;2024-02-23T06:55:14;1.77;;;1.77;;
58250;SDS011;51449;51.676;5.812;2024-02-23T06:57:38;3.60;;;2.30;;
58250;SDS011;51449;51.676;5.812;2024-02-23T06:59:59;2.00;;;2.00;;
58250;SDS011;51449;51.676;5.812;2024-02-23T07:02:22;1.97;;;1.50;;
58250;SDS011;51449;51.676;5.812;2024-02-23T07:04:44;1.93;;;1.83;;
58250;SDS011;51449;51.676;5.812;2024-02-23T07:07:05;1.97;;;1.97;;
58250;SDS011;51449;51.676;5.812;2024-02-23T07:09:30;2.93;;;1.83;;
58250;SDS011;51449;51.676;5.812;2024-02-23T07:11:52;1.17;;;1.17;;
58250;SDS011;51449;51.676;5.812;2024-02-23T07:14:14;2.03;;;1.87;;
58250;SDS011;51449;51.676;5.812;2024-02-23T07:16:38;1.95;;;1.77;;
58250;SDS011;51449;51.676;5.812;2024-02-23T07:19:01;1.73;;;0.97;;
58250;SDS011;51449;51.676;5.812;2024-02-23T07:21:22;1.13;;;1.10;;
58250;SDS011;51449;51.676;5.812;2024-02-23T07:23:45;2.03;;;1.27;;
58250;SDS011;51449;51.676;5.812;2024-02-23T07:26:07;1.10;;;1.10;;
58250;SDS011;51449;51.676;5.812;2024-02-23T07:28:29;6.80;;;2.80;;
58250;SDS011;51449;51.676;5.812;2024-02-23T07:30:51;2.10;;;1.40;;
58250;SDS011;51449;51.676;5.812;2024-02-23T07:33:14;2.47;;;2.33;;
58250;SDS011;51449;51.676;5.812;2024-02-23T07:35:36;1.17;;;1.17;;
58250;SDS011;51449;51.676;5.812;2024-02-23T07:37:58;1.70;;;1.37;;
58250;SDS011;51449;51.676;5.812;2024-02-23T07:40:21;1.57;;;1.57;;
58250;SDS011;51449;51.676;5.812;2024-02-23T07:42:43;2.30;;;2.10;;
58250;SDS011;51449;51.676;5.812;2024-02-23T07:45:05;6.40;;;1.73;;
58250;SDS011;51449;51.676;5.812;2024-02-23T07:47:28;1.55;;;1.55;;
58250;SDS011;51449;51.676;5.812;2024-02-23T07:49:51;2.50;;;2.30;;
58250;SDS011;51449;51.676;5.812;2024-02-23T07:52:13;1.37;;;1.37;;
58250;SDS011;51449;51.676;5.812;2024-02-23T07:54:35;2.33;;;2.23;;
58250;SDS011;51449;51.676;5.812;2024-02-23T07:56:57;1.47;;;1.47;;
58250;SDS011;51449;51.676;5.812;2024-02-23T07:59:19;1.10;;;1.10;;
58250;SDS011;51449;51.676;5.812;2024-02-23T08:01:41;1.70;;;1.70;;
58250;SDS011;51449;51.676;5.812;2024-02-23T08:04:03;2.40;;;2.30;;
58250;SDS011;51449;51.676;5.812;2024-02-23T08:06:25;1.43;;;1.33;;
58250;SDS011;51449;51.676;5.812;2024-02-23T08:08:47;1.93;;;1.67;;
58250;SDS011;51449;51.676;5.812;2024-02-23T08:11:09;2.23;;;2.13;;
58250;SDS011;51449;51.676;5.812;2024-02-23T08:13:31;3.27;;;3.13;;
58250;SDS011;51449;51.676;5.812;2024-02-23T08:15:53;4.97;;;4.60;;
58250;SDS011;51449;51.676;5.812;2024-02-23T08:18:15;4.13;;;1.60;;
58250;SDS011;51449;51.676;5.812;2024-02-23T08:20:37;2.40;;;2.20;;
58250;SDS011;51449;51.676;5.812;2024-02-23T08:22:59;4.47;;;3.30;;
58250;SDS011;51449;51.676;5.812;2024-02-23T08:25:20;3.67;;;3.30;;
58250;SDS011;51449;51.676;5.812;2024-02-23T08:27:42;2.33;;;2.07;;
58250;SDS011;51449;51.676;5.812;2024-02-23T08:30:05;12.07;;;2.20;;
58250;SDS011;51449;51.676;5.812;2024-02-23T08:32:27;6.43;;;2.73;;
58250;SDS011;51449;51.676;5.812;2024-02-23T08:34:49;2.80;;;2.70;;
58250;SDS011;51449;51.676;5.812;2024-02-23T08:39:36;2.43;;;1.67;;
58250;SDS011;51449;51.676;5.812;2024-02-23T08:41:58;3.33;;;1.07;;
58250;SDS011;51449;51.676;5.812;2024-02-23T08:44:20;1.77;;;1.70;;
58250;SDS011;51449;51.676;5.812;2024-02-23T08:46:42;1.30;;;1.20;;
58250;SDS011;51449;51.676;5.812;2024-02-23T08:49:04;2.07;;;1.50;;
58250;SDS011;51449;51.676;5.812;2024-02-23T08:51:25;3.27;;;2.97;;
58250;SDS011;51449;51.676;5.812;2024-02-23T08:53:47;9.20;;;2.57;;
58250;SDS011;51449;51.676;5.812;2024-02-23T08:56:09;1.53;;;1.53;;
58250;SDS011;51449;51.676;5.812;2024-02-23T08:58:34;1.85;;;1.85;;
58250;SDS011;51449;51.676;5.812;2024-02-23T09:00:56;2.30;;;2.20;;
58250;SDS011;51449;51.676;5.812;2024-02-23T09:03:18;1.93;;;1.63;;
58250;SDS011;51449;51.676;5.812;2024-02-23T09:05:39;4.13;;;2.30;;
58250;SDS011;51449;51.676;5.812;2024-02-23T09:08:02;1.43;;;1.43;;
58250;SDS011;51449;51.676;5.812;2024-02-23T09:10:24;1.37;;;1.27;;
58250;SDS011;51449;51.676;5.812;2024-02-23T09:12:46;2.73;;;2.63;;
58250;SDS011;51449;51.676;5.812;2024-02-23T09:15:08;3.13;;;2.83;;
58250;SDS011;51449;51.676;5.812;2024-02-23T09:17:30;3.67;;;1.50;;
58250;SDS011;51449;51.676;5.812;2024-02-23T09:19:52;2.67;;;2.23;;
58250;SDS011;51449;51.676;5.812;2024-02-23T09:22:14;4.13;;;2.07;;
58250;SDS011;51449;51.676;5.812;2024-02-23T09:24:40;3.80;;;1.53;;
58250;SDS011;51449;51.676;5.812;2024-02-23T09:27:02;3.13;;;2.17;;
58250;SDS011;51449;51.676;5.812;2024-02-23T09:29:24;1.73;;;1.60;;
58250;SDS011;51449;51.676;5.812;2024-02-23T09:31:46;1.07;;;1.07;;
58250;SDS011;51449;51.676;5.812;2024-02-23T09:34:09;5.63;;;1.00;;
58250;SDS011;51449;51.676;5.812;2024-02-23T09:36:31;1.40;;;1.30;;
58250;SDS011;51449;51.676;5.812;2024-02-23T09:38:53;2.10;;;2.03;;
58250;SDS011;51449;51.676;5.812;2024-02-23T09:41:17;2.83;;;0.60;;
58250;SDS011;51449;51.676;5.812;2024-02-23T09:43:43;2.43;;;1.00;;
58250;SDS011;51449;51.676;5.812;2024-02-23T09:46:07;1.30;;;1.20;;
58250;SDS011;51449;51.676;5.812;2024-02-23T09:48:29;3.80;;;0.50;;
58250;SDS011;51449;51.676;5.812;2024-02-23T09:50:55;0.60;;;0.60;;
58250;SDS011;51449;51.676;5.812;2024-02-23T09:53:19;1.77;;;0.85;;
58250;SDS011;51449;51.676;5.812;2024-02-23T09:55:43;1.23;;;0.87;;
58250;SDS011;51449;51.676;5.812;2024-02-23T09:58:07;3.28;;;1.23;;
58250;SDS011;51449;51.676;5.812;2024-02-23T10:00:32;1.80;;;1.57;;
58250;SDS011;51449;51.676;5.812;2024-02-23T10:02:58;1.97;;;1.20;;
58250;SDS011;51449;51.676;5.812;2024-02-23T10:05:19;0.90;;;0.90;;
58250;SDS011;51449;51.676;5.812;2024-02-23T10:07:57;3.10;;;1.03;;
58250;SDS011;51449;51.676;5.812;2024-02-23T10:10:30;2.03;;;1.13;;
58250;SDS011;51449;51.676;5.812;2024-02-23T10:15:16;1.03;;;1.03;;
58250;SDS011;51449;51.676;5.812;2024-02-23T10:17:38;1.03;;;1.00;;
58250;SDS011;51449;51.676;5.812;2024-02-23T10:20:02;0.68;;;0.68;;
58250;SDS011;51449;51.676;5.812;2024-02-23T10:22:29;2.70;;;2.50;;
58250;SDS011;51449;51.676;5.812;2024-02-23T10:27:14;4.00;;;1.17;;
58250;SDS011;51449;51.676;5.812;2024-02-23T10:29:35;0.90;;;0.90;;
58250;SDS011;51449;51.676;5.812;2024-02-23T10:31:57;2.57;;;0.60;;
58250;SDS011;51449;51.676;5.812;2024-02-23T10:34:21;2.83;;;1.77;;
58250;SDS011;51449;51.676;5.812;2024-02-23T10:36:45;2.00;;;1.90;;
58250;SDS011;51449;51.676;5.812;2024-02-23T10:39:09;1.27;;;1.00;;
58250;SDS011;51449;51.676;5.812;2024-02-23T10:41:32;3.03;;;1.10;;
58250;SDS011;51449;51.676;5.812;2024-02-23T10:43:57;0.97;;;0.93;;
58250;SDS011;51449;51.676;5.812;2024-02-23T10:46:21;0.93;;;0.93;;
58250;SDS011;51449;51.676;5.812;2024-02-23T10:48:43;1.90;;;1.00;;
58250;SDS011;51449;51.676;5.812;2024-02-23T10:51:07;9.65;;;1.35;;
58250;SDS011;51449;51.676;5.812;2024-02-23T10:53:30;2.17;;;2.10;;
58250;SDS011;51449;51.676;5.812;2024-02-23T10:55:56;3.40;;;1.70;;
58250;SDS011;51449;51.676;5.812;2024-02-23T10:58:21;1.17;;;1.07;;
58250;SDS011;51449;51.676;5.812;2024-02-23T11:00:43;1.00;;;1.00;;
58250;SDS011;51449;51.676;5.812;2024-02-23T11:03:07;0.90;;;0.90;;
58250;SDS011;51449;51.676;5.812;2024-02-23T11:05:30;1.47;;;1.47;;
58250;SDS011;51449;51.676;5.812;2024-02-23T11:07:55;4.70;;;2.20;;
58250;SDS011;51449;51.676;5.812;2024-02-23T11:10:18;0.77;;;0.77;;
58250;SDS011;51449;51.676;5.812;2024-02-23T11:12:47;1.47;;;1.47;;
58250;SDS011;51449;51.676;5.812;2024-02-23T11:15:27;2.30;;;1.70;;
58250;SDS011;51449;51.676;5.812;2024-02-23T11:17:50;2.07;;;1.07;;
58250;SDS011;51449;51.676;5.812;2024-02-23T11:20:14;1.23;;;1.23;;
58250;SDS011;51449;51.676;5.812;2024-02-23T11:22:51;1.43;;;1.33;;
58250;SDS011;51449;51.676;5.812;2024-02-23T11:25:16;1.13;;;1.13;;
58250;SDS011;51449;51.676;5.812;2024-02-23T11:27:39;2.93;;;1.43;;
58250;SDS011;51449;51.676;5.812;2024-02-23T11:30:04;2.87;;;2.40;;
58250;SDS011;51449;51.676;5.812;2024-02-23T11:32:46;1.77;;;1.03;;
58250;SDS011;51449;51.676;5.812;2024-02-23T11:35:11;2.73;;;2.63;;
58250;SDS011;51449;51.676;5.812;2024-02-23T11:37:53;1.30;;;1.27;;
58250;SDS011;51449;51.676;5.812;2024-02-23T11:40:22;3.47;;;1.33;;
58250;SDS011;51449;51.676;5.812;2024-02-23T11:42:45;1.73;;;1.63;;
58250;SDS011;51449;51.676;5.812;2024-02-23T11:45:09;1.83;;;1.75;;
58250;SDS011;51449;51.676;5.812;2024-02-23T11:47:32;1.37;;;1.37;;
58250;SDS011;51449;51.676;5.812;2024-02-23T11:49:54;4.57;;;4.47;;
58250;SDS011;51449;51.676;5.812;2024-02-23T11:52:16;3.57;;;3.47;;
58250;SDS011;51449;51.676;5.812;2024-02-23T11:54:38;4.57;;;4.40;;
58250;SDS011;51449;51.676;5.812;2024-02-23T11:57:00;3.70;;;3.60;;
58250;SDS011;51449;51.676;5.812;2024-02-23T11:59:22;2.70;;;2.50;;
58250;SDS011;51449;51.676;5.812;2024-02-23T12:01:45;4.77;;;4.67;;
58250;SDS011;51449;51.676;5.812;2024-02-23T12:04:08;5.47;;;5.30;;
58250;SDS011;51449;51.676;5.812;2024-02-23T12:06:31;11.57;;;10.50;;
58250;SDS011;51449;51.676;5.812;2024-02-23T12:08:54;9.13;;;8.82;;
58250;SDS011;51449;51.676;5.812;2024-02-23T12:11:16;11.10;;;10.57;;
58250;SDS011;51449;51.676;5.812;2024-02-23T12:13:39;10.97;;;10.50;;
58250;SDS011;51449;51.676;5.812;2024-02-23T12:16:01;8.50;;;8.20;;
58250;SDS011;51449;51.676;5.812;2024-02-23T12:18:24;14.23;;;13.57;;
58250;SDS011;51449;51.676;5.812;2024-02-23T12:20:47;14.15;;;13.70;;
58250;SDS011;51449;51.676;5.812;2024-02-23T12:23:11;11.30;;;10.90;;
58250;SDS011;51449;51.676;5.812;2024-02-23T12:25:33;3.78;;;3.53;;
58250;SDS011;51449;51.676;5.812;2024-02-23T12:27:58;1.50;;;1.43;;
58250;SDS011;51449;51.676;5.812;2024-02-23T12:30:21;4.50;;;4.30;;
58250;SDS011;51449;51.676;5.812;2024-02-23T12:32:43;2.73;;;2.63;;
58250;SDS011;51449;51.676;5.812;2024-02-23T12:35:05;8.83;;;8.50;;
58250;SDS011;51449;51.676;5.812;2024-02-23T12:37:27;4.03;;;3.13;;
58250;SDS011;51449;51.676;5.812;2024-02-23T12:39:49;5.13;;;4.80;;
58250;SDS011;51449;51.676;5.812;2024-02-23T12:42:11;3.50;;;3.27;;
58250;SDS011;51449;51.676;5.812;2024-02-23T12:44:33;1.67;;;1.67;;
58250;SDS011;51449;51.676;5.812;2024-02-23T12:46:55;6.07;;;5.90;;
58250;SDS011;51449;51.676;5.812;2024-02-23T12:49:16;2.23;;;2.13;;
58250;SDS011;51449;51.676;5.812;2024-02-23T12:51:38;7.97;;;7.70;;
58250;SDS011;51449;51.676;5.812;2024-02-23T12:54:01;5.37;;;5.10;;
58250;SDS011;51449;51.676;5.812;2024-02-23T12:56:24;7.93;;;7.73;;
58250;SDS011;51449;51.676;5.812;2024-02-23T12:58:47;5.90;;;5.60;;
58250;SDS011;51449;51.676;5.812;2024-02-23T13:01:10;7.10;;;6.90;;
58250;SDS011;51449;51.676;5.812;2024-02-23T13:03:33;2.43;;;2.23;;
58250;SDS011;51449;51.676;5.812;2024-02-23T13:05:57;1.95;;;1.95;;
58250;SDS011;51449;51.676;5.812;2024-02-23T13:08:19;3.17;;;2.43;;
58250;SDS011;51449;51.676;5.812;2024-02-23T13:10:42;7.47;;;7.10;;
58250;SDS011;51449;51.676;5.812;2024-02-23T13:13:04;8.80;;;8.50;;
58250;SDS011;51449;51.676;5.812;2024-02-23T13:15:26;5.57;;;5.37;;
58250;SDS011;51449;51.676;5.812;2024-02-23T13:17:48;3.63;;;3.43;;
58250;SDS011;51449;51.676;5.812;2024-02-23T13:20:10;4.27;;;3.97;;
58250;SDS011;51449;51.676;5.812;2024-02-23T13:22:34;5.07;;;4.90;;
58250;SDS011;51449;51.676;5.812;2024-02-23T13:24:56;3.40;;;3.10;;
58250;SDS011;51449;51.676;5.812;2024-02-23T13:27:17;3.20;;;2.90;;
58250;SDS011;51449;51.676;5.812;2024-02-23T13:29:39;3.53;;;3.33;;
58250;SDS011;51449;51.676;5.812;2024-02-23T13:32:01;3.23;;;3.13;;
58250;SDS011;51449;51.676;5.812;2024-02-23T13:34:24;3.70;;;3.50;;
58250;SDS011;51449;51.676;5.812;2024-02-23T13:36:46;2.30;;;2.20;;
58250;SDS011;51449;51.676;5.812;2024-02-23T13:39:08;3.20;;;3.07;;
58250;SDS011;51449;51.676;5.812;2024-02-23T13:41:30;2.63;;;2.53;;
58250;SDS011;51449;51.676;5.812;2024-02-23T13:43:52;3.60;;;3.30;;
58250;SDS011;51449;51.676;5.812;2024-02-23T13:46:14;5.17;;;4.93;;
58250;SDS011;51449;51.676;5.812;2024-02-23T13:48:36;7.73;;;7.27;;
58250;SDS011;51449;51.676;5.812;2024-02-23T13:50:58;14.07;;;13.67;;
58250;SDS011;51449;51.676;5.812;2024-02-23T13:53:25;9.00;;;8.67;;
58250;SDS011;51449;51.676;5.812;2024-02-23T13:55:47;12.27;;;11.57;;
58250;SDS011;51449;51.676;5.812;2024-02-23T13:58:09;17.17;;;16.47;;
58250;SDS011;51449;51.676;5.812;2024-02-23T14:00:33;13.67;;;13.07;;
58250;SDS011;51449;51.676;5.812;2024-02-23T14:02:55;23.33;;;22.63;;
58250;SDS011;51449;51.676;5.812;2024-02-23T14:05:17;26.13;;;25.20;;
58250;SDS011;51449;51.676;5.812;2024-02-23T14:07:40;12.87;;;12.27;;
58250;SDS011;51449;51.676;5.812;2024-02-23T14:10:02;8.80;;;8.57;;
58250;SDS011;51449;51.676;5.812;2024-02-23T14:12:24;16.43;;;15.67;;
58250;SDS011;51449;51.676;5.812;2024-02-23T14:14:46;5.80;;;5.60;;
58250;SDS011;51449;51.676;5.812;2024-02-23T14:17:08;14.57;;;13.97;;
58250;SDS011;51449;51.676;5.812;2024-02-23T14:19:30;14.10;;;13.60;;
58250;SDS011;51449;51.676;5.812;2024-02-23T14:21:52;10.90;;;10.07;;
58250;SDS011;51449;51.676;5.812;2024-02-23T14:24:14;23.77;;;23.00;;
58250;SDS011;51449;51.676;5.812;2024-02-23T14:26:36;35.93;;;34.80;;